createdAt,value
2023-04-10T00:00:08.828Z,33.08
2023-04-10T00:02:40.168Z,31.00
2023-04-10T00:05:08.386Z,32.45
2023-04-10T00:07:36.033Z,31.77
2023-04-10T00:10:03.520Z,31.17
2023-04-10T00:12:31.313Z,30.90
2023-04-10T00:14:59.297Z,30.12
2023-04-10T00:17:26.706Z,30.58
2023-04-10T00:19:54.066Z,30.98
2023-04-10T00:22:21.720Z,28.27
2023-04-10T00:24:49.108Z,32.20
2023-04-10T00:27:16.476Z,31.65
2023-04-10T00:29:44.178Z,34.75
2023-04-10T00:32:11.608Z,30.33
2023-04-10T00:34:39.009Z,29.52
2023-04-10T00:37:07.269Z,31.77
2023-04-10T00:39:34.721Z,30.75
2023-04-10T00:42:02.418Z,33.10
2023-04-10T00:44:30.352Z,28.95
2023-04-10T00:46:57.845Z,28.62
2023-04-10T00:49:25.336Z,30.10
2023-04-10T00:51:55.683Z,28.42
2023-04-10T00:54:23.964Z,30.85
2023-04-10T00:56:53.024Z,27.83
2023-04-10T00:59:21.281Z,29.85
2023-04-10T01:01:48.777Z,28.67
2023-04-10T01:04:16.747Z,31.42
2023-04-10T01:07:09.565Z,31.12
2023-04-10T01:09:41.914Z,29.45
2023-04-10T01:12:37.933Z,33.80
2023-04-10T01:15:23.851Z,31.42
2023-04-10T01:18:10.035Z,28.27
2023-04-10T01:23:30.774Z,26.73
2023-04-10T01:26:02.015Z,27.02
2023-04-10T01:28:39.301Z,27.20
2023-04-10T01:31:09.222Z,27.17
2023-04-10T01:34:00.816Z,26.58
2023-04-10T01:36:32.347Z,26.17
2023-04-10T01:39:00.411Z,26.00
2023-04-10T01:41:28.009Z,27.52
2023-04-10T01:43:56.387Z,27.30
2023-04-10T01:46:24.925Z,26.75
2023-04-10T01:48:53.962Z,25.12
2023-04-10T01:51:22.150Z,27.15
2023-04-10T01:53:50.776Z,27.20
2023-04-10T01:56:22.434Z,24.42
2023-04-10T01:58:51.048Z,27.00
2023-04-10T02:01:29.200Z,30.67
2023-04-10T02:03:58.883Z,32.08
2023-04-10T02:06:33.419Z,27.23
2023-04-10T02:09:28.582Z,27.25
2023-04-10T02:12:04.607Z,28.08
2023-04-10T02:14:33.198Z,25.88
2023-04-10T02:17:01.762Z,29.70
2023-04-10T02:19:29.315Z,25.40
2023-04-10T02:21:58.091Z,26.27
2023-04-10T02:24:27.134Z,24.08
2023-04-10T02:26:54.535Z,24.95
2023-04-10T02:29:23.616Z,24.77
2023-04-10T02:31:51.006Z,25.12
2023-04-10T02:34:19.751Z,26.05
2023-04-10T02:36:47.387Z,23.52
2023-04-10T02:39:14.857Z,24.17
2023-04-10T02:41:46.474Z,25.85
2023-04-10T02:44:14.500Z,23.80
2023-04-10T02:46:43.725Z,24.58
2023-04-10T02:49:11.259Z,24.75
2023-04-10T02:51:39.128Z,23.15
2023-04-10T02:54:06.511Z,23.50
2023-04-10T02:56:35.131Z,25.12
2023-04-10T02:59:03.556Z,26.27
2023-04-10T03:01:32.105Z,24.87
2023-04-10T03:03:59.956Z,24.80
2023-04-10T03:06:27.905Z,24.65
2023-04-10T03:08:56.204Z,28.80
2023-04-10T03:11:23.679Z,25.30
2023-04-10T03:13:51.681Z,27.00
2023-04-10T03:16:19.263Z,26.42
2023-04-10T03:18:47.183Z,24.87
2023-04-10T03:21:14.890Z,26.12
2023-04-10T03:23:42.704Z,23.35
2023-04-10T03:26:11.309Z,23.95
2023-04-10T03:28:39.833Z,26.12
2023-04-10T03:31:10.717Z,26.85
2023-04-10T03:33:39.244Z,24.12
2023-04-10T03:36:07.618Z,25.83
2023-04-10T03:38:35.806Z,23.60
2023-04-10T03:41:03.356Z,23.30
2023-04-10T03:43:31.575Z,21.77
2023-04-10T03:45:59.143Z,23.42
2023-04-10T03:48:28.558Z,23.65
2023-04-10T03:50:56.525Z,21.52
2023-04-10T03:53:24.389Z,26.00
2023-04-10T03:55:52.924Z,23.60
2023-04-10T03:58:21.463Z,22.70
2023-04-10T04:00:48.986Z,23.58
2023-04-10T04:03:18.147Z,26.12
2023-04-10T04:05:47.563Z,25.98
2023-04-10T04:08:18.107Z,27.48
2023-04-10T04:10:49.886Z,27.35
2023-04-10T04:13:17.889Z,29.45
2023-04-10T04:15:48.051Z,28.17
2023-04-10T04:18:15.926Z,28.17
2023-04-10T04:20:43.367Z,30.77
2023-04-10T04:23:11.013Z,30.95
2023-04-10T04:25:39.192Z,29.77
2023-04-10T04:28:08.287Z,33.13
2023-04-10T04:30:35.801Z,30.05
2023-04-10T04:33:04.835Z,31.60
2023-04-10T04:35:32.654Z,29.25
2023-04-10T04:38:00.478Z,32.05
2023-04-10T04:40:28.898Z,31.65
2023-04-10T04:42:56.664Z,30.48
2023-04-10T04:45:24.877Z,30.88
2023-04-10T04:47:54.755Z,33.10
2023-04-10T04:50:22.323Z,30.10
2023-04-10T04:52:50.854Z,30.48
2023-04-10T04:55:19.114Z,30.83
2023-04-10T04:57:48.097Z,29.42
2023-04-10T05:00:17.340Z,30.17
2023-04-10T05:02:46.626Z,30.67
2023-04-10T05:05:14.173Z,29.25
2023-04-10T05:07:41.762Z,26.50
2023-04-10T05:10:10.082Z,27.75
2023-04-10T05:12:37.903Z,27.35
2023-04-10T05:15:06.421Z,29.08
2023-04-10T05:17:34.250Z,32.15
2023-04-10T05:20:02.566Z,30.60
2023-04-10T05:22:35.530Z,34.22
2023-04-10T05:25:06.121Z,30.85
2023-04-10T05:27:34.691Z,30.73
2023-04-10T05:30:03.718Z,29.40
2023-04-10T05:32:32.874Z,30.37
2023-04-10T05:35:00.692Z,33.05
2023-04-10T05:37:28.541Z,33.90
2023-04-10T05:39:57.323Z,34.45
2023-04-10T05:42:25.029Z,33.55
2023-04-10T05:44:53.053Z,33.45
2023-04-10T05:47:22.164Z,31.70
2023-04-10T05:49:49.951Z,33.22
2023-04-10T05:52:19.595Z,31.17
2023-04-10T05:54:47.371Z,32.05
2023-04-10T05:57:15.901Z,32.50
2023-04-10T05:59:43.762Z,31.25
2023-04-10T06:02:12.172Z,31.83
2023-04-10T06:04:40.565Z,31.42
2023-04-10T06:07:08.307Z,30.00
2023-04-10T06:09:35.671Z,30.30
2023-04-10T06:12:06.056Z,30.02
2023-04-10T06:14:33.499Z,30.70
2023-04-10T06:17:01.817Z,30.30
2023-04-10T06:19:29.560Z,31.37
2023-04-10T06:21:57.507Z,30.83
2023-04-10T06:24:24.908Z,28.15
2023-04-10T06:26:52.688Z,31.52
2023-04-10T06:29:20.379Z,28.85
2023-04-10T06:31:47.840Z,29.42
2023-04-10T06:34:16.563Z,26.00
2023-04-10T06:36:47.501Z,27.83
2023-04-10T06:39:15.029Z,29.27
2023-04-10T06:41:42.654Z,30.75
2023-04-10T06:44:13.358Z,26.73
2023-04-10T06:46:40.901Z,24.15
2023-04-10T06:49:08.743Z,25.27
2023-04-10T06:51:36.512Z,24.10
2023-04-10T06:54:03.912Z,23.98
2023-04-10T06:56:33.741Z,25.80
2023-04-10T06:59:01.655Z,23.77
2023-04-10T07:01:29.107Z,23.90
2023-04-10T07:03:56.845Z,23.10
2023-04-10T07:06:24.751Z,23.50
2023-04-10T07:08:52.382Z,16.70
2023-04-10T07:11:20.177Z,16.92
2023-04-10T07:13:47.570Z,16.80
2023-04-10T07:16:15.013Z,16.67
2023-04-10T07:18:42.699Z,19.17
2023-04-10T07:21:12.178Z,19.17
2023-04-10T07:23:39.723Z,19.17
2023-04-10T07:26:07.429Z,20.33
2023-04-10T07:28:34.960Z,19.17
2023-04-10T07:31:02.466Z,18.42
2023-04-10T07:33:30.115Z,18.83
2023-04-10T07:35:57.716Z,22.87
2023-04-10T07:38:25.491Z,21.25
2023-04-10T07:40:57.456Z,21.37
2023-04-10T07:43:25.264Z,21.83
2023-04-10T07:45:53.073Z,21.30
2023-04-10T07:48:20.634Z,21.75
2023-04-10T07:50:48.193Z,20.42
2023-04-10T07:53:16.068Z,21.62
2023-04-10T07:55:44.818Z,17.95
2023-04-10T07:58:12.204Z,19.80
2023-04-10T08:00:39.960Z,21.95
2023-04-10T08:03:08.051Z,20.65
2023-04-10T08:05:36.364Z,21.12
2023-04-10T08:08:03.832Z,17.52
2023-04-10T08:10:31.663Z,18.75
2023-04-10T08:12:59.058Z,18.92
2023-04-10T08:15:26.449Z,16.42
2023-04-10T08:17:54.243Z,11.75
2023-04-10T08:20:21.686Z,14.32
2023-04-10T08:22:49.089Z,14.57
2023-04-10T08:25:16.874Z,13.62
2023-04-10T08:27:44.308Z,14.00
2023-04-10T08:30:11.904Z,15.07
2023-04-10T08:32:39.823Z,15.95
2023-04-10T08:35:07.606Z,17.42
2023-04-10T08:37:35.026Z,16.12
2023-04-10T08:40:02.663Z,16.02
2023-04-10T08:42:31.693Z,15.98
2023-04-10T08:44:59.986Z,16.23
2023-04-10T08:47:28.977Z,15.20
2023-04-10T08:49:57.887Z,14.43
2023-04-10T08:52:26.253Z,14.10
2023-04-10T08:54:56.081Z,14.00
2023-04-10T08:57:23.699Z,15.05
2023-04-10T08:59:51.715Z,16.02
2023-04-10T09:02:20.291Z,16.33
2023-04-10T09:04:51.160Z,19.55
2023-04-10T09:07:18.971Z,19.40
2023-04-10T09:09:46.581Z,20.15
2023-04-10T09:12:15.464Z,18.27
2023-04-10T09:14:43.454Z,17.40
2023-04-10T09:17:22.015Z,17.70
2023-04-10T09:19:52.791Z,14.93
2023-04-10T09:22:30.003Z,17.73
2023-04-10T09:24:59.438Z,17.20
2023-04-10T09:27:39.792Z,17.12
2023-04-10T09:30:08.463Z,14.57
2023-04-10T09:32:37.261Z,14.73
2023-04-10T09:35:05.926Z,14.15
2023-04-10T09:37:34.301Z,15.40
2023-04-10T09:40:04.366Z,13.18
2023-04-10T09:42:33.958Z,16.00
2023-04-10T09:45:01.901Z,16.02
2023-04-10T09:47:29.922Z,15.43
2023-04-10T09:50:00.633Z,15.57
2023-04-10T09:52:29.049Z,13.25
2023-04-10T09:55:01.360Z,12.75
2023-04-10T09:57:30.891Z,16.73
2023-04-10T10:00:08.317Z,17.35
2023-04-10T10:02:41.424Z,14.50
2023-04-10T10:05:09.926Z,13.62
2023-04-10T10:07:38.783Z,12.68
2023-04-10T10:10:09.807Z,12.35
2023-04-10T10:12:37.223Z,12.32
2023-04-10T10:15:14.554Z,12.80
2023-04-10T10:18:25.472Z,11.95
2023-04-10T10:20:53.516Z,13.45
2023-04-10T10:23:22.457Z,10.90
2023-04-10T10:25:50.502Z,11.55
2023-04-10T10:28:19.459Z,12.37
2023-04-10T10:30:48.134Z,11.88
2023-04-10T10:33:15.588Z,15.40
2023-04-10T10:35:44.497Z,10.55
2023-04-10T10:38:12.433Z,12.45
2023-04-10T10:41:01.048Z,11.93
2023-04-10T10:43:47.401Z,12.40
2023-04-10T10:46:21.712Z,12.73
2023-04-10T10:48:58.346Z,14.95
2023-04-10T10:51:49.807Z,14.35
2023-04-10T10:54:40.354Z,13.40
2023-04-10T10:57:47.399Z,11.75
2023-04-10T11:00:16.380Z,14.82
2023-04-10T11:02:44.133Z,12.90
2023-04-10T11:05:51.027Z,13.13
2023-04-10T11:08:19.180Z,13.07
2023-04-10T11:11:06.053Z,13.50
2023-04-10T11:13:38.877Z,14.65
2023-04-10T11:16:07.948Z,12.45
2023-04-10T11:18:44.654Z,12.70
2023-04-10T11:21:19.633Z,12.48
2023-04-10T11:23:50.184Z,12.13
2023-04-10T11:26:39.882Z,12.02
2023-04-10T11:29:27.406Z,12.25
2023-04-10T11:31:54.862Z,13.15
2023-04-10T11:34:22.748Z,11.90
2023-04-10T11:36:50.417Z,13.05
2023-04-10T11:39:18.845Z,12.50
2023-04-10T11:41:50.766Z,10.75
2023-04-10T11:44:31.988Z,19.42
2023-04-10T11:46:59.725Z,13.68
2023-04-10T11:49:30.447Z,17.10
2023-04-10T11:51:57.946Z,14.35
2023-04-10T11:54:27.299Z,12.95
2023-04-10T11:57:07.243Z,14.20
2023-04-10T11:59:35.414Z,15.52
2023-04-10T12:02:11.585Z,17.17
2023-04-10T12:04:40.296Z,13.82
2023-04-10T12:07:08.535Z,15.25
2023-04-10T12:09:36.467Z,11.90
2023-04-10T12:12:08.416Z,15.88
2023-04-10T12:14:40.402Z,12.57
2023-04-10T12:17:10.425Z,13.62
2023-04-10T12:19:41.041Z,11.85
2023-04-10T12:22:12.741Z,13.88
2023-04-10T12:24:47.773Z,12.85
2023-04-10T12:27:23.445Z,16.75
2023-04-10T12:29:52.522Z,14.15
2023-04-10T12:32:20.814Z,13.25
2023-04-10T12:34:52.674Z,15.23
2023-04-10T12:37:20.740Z,13.70
2023-04-10T12:39:48.248Z,14.30
2023-04-10T12:42:17.768Z,14.63
2023-04-10T12:44:55.309Z,15.02
2023-04-10T12:47:23.547Z,14.95
2023-04-10T12:50:07.937Z,18.80
2023-04-10T12:52:36.087Z,16.62
2023-04-10T12:55:19.955Z,17.02
2023-04-10T12:57:49.891Z,16.00
2023-04-10T13:00:19.225Z,16.98
2023-04-10T13:02:47.925Z,16.23
2023-04-10T13:05:16.004Z,13.70
2023-04-10T13:07:43.678Z,15.55
2023-04-10T13:10:11.288Z,19.42
2023-04-10T13:12:40.081Z,15.15
2023-04-10T13:15:08.222Z,19.08
2023-04-10T13:17:36.048Z,14.38
2023-04-10T13:20:04.683Z,14.00
2023-04-10T13:22:32.355Z,14.65
2023-04-10T13:24:59.830Z,13.32
2023-04-10T13:27:27.211Z,15.40
2023-04-10T13:29:55.264Z,13.27
2023-04-10T13:32:22.658Z,13.10
2023-04-10T13:34:50.290Z,15.38
2023-04-10T13:37:17.980Z,11.38
2023-04-10T13:39:45.369Z,12.07
2023-04-10T13:42:13.728Z,10.80
2023-04-10T13:44:41.464Z,10.75
2023-04-10T13:47:09.197Z,12.32
2023-04-10T13:49:37.781Z,13.50
2023-04-10T13:52:05.515Z,12.85
2023-04-10T13:54:32.920Z,11.70
2023-04-10T13:57:00.703Z,10.40
2023-04-10T13:59:29.239Z,12.88
2023-04-10T14:01:56.688Z,11.48
2023-04-10T14:04:24.366Z,10.82
2023-04-10T14:06:53.159Z,15.00
2023-04-10T14:09:20.722Z,9.32
2023-04-10T14:11:48.417Z,10.68
2023-04-10T14:14:15.928Z,10.30
2023-04-10T14:16:43.339Z,11.15
2023-04-10T14:19:11.045Z,10.43
2023-04-10T14:21:40.503Z,10.20
2023-04-10T14:24:07.889Z,11.77
2023-04-10T14:26:35.569Z,10.80
2023-04-10T14:29:03.070Z,10.00
2023-04-10T14:31:30.489Z,10.45
2023-04-10T14:33:58.200Z,10.18
2023-04-10T14:36:25.641Z,10.85
2023-04-10T14:38:53.158Z,10.65
2023-04-10T14:41:21.256Z,10.32
2023-04-10T14:43:48.660Z,10.20
2023-04-10T14:46:17.734Z,10.75
2023-04-10T14:48:46.450Z,11.95
2023-04-10T14:51:13.821Z,10.88
2023-04-10T14:53:41.305Z,8.95
2023-04-10T14:56:12.382Z,9.45
2023-04-10T14:58:40.083Z,9.32
2023-04-10T15:01:11.827Z,8.80
2023-04-10T15:03:40.249Z,9.25
2023-04-10T15:06:08.105Z,8.07
2023-04-10T15:08:35.527Z,12.85
2023-04-10T15:11:05.223Z,10.13
2023-04-10T15:13:33.014Z,9.38
2023-04-10T15:16:00.644Z,9.32
2023-04-10T15:18:28.422Z,8.80
2023-04-10T15:20:58.330Z,8.93
2023-04-10T15:23:26.718Z,8.55
2023-04-10T15:25:55.006Z,8.25
2023-04-10T15:28:22.348Z,8.38
2023-04-10T15:30:50.261Z,8.02
2023-04-10T15:33:18.008Z,8.85
2023-04-10T15:35:49.416Z,9.55
2023-04-10T15:38:16.875Z,8.85
2023-04-10T15:40:44.515Z,11.15
2023-04-10T15:43:12.841Z,8.38
2023-04-10T15:45:40.211Z,8.20
2023-04-10T15:48:07.929Z,9.30
2023-04-10T15:50:37.389Z,9.98
2023-04-10T15:53:04.825Z,9.05
2023-04-10T15:55:32.524Z,9.35
2023-04-10T15:58:02.260Z,9.57
2023-04-10T16:00:29.988Z,9.10
2023-04-10T16:02:58.473Z,8.60
2023-04-10T16:05:26.094Z,10.15
2023-04-10T16:07:53.464Z,9.70
2023-04-10T16:10:21.400Z,9.95
2023-04-10T16:12:50.877Z,9.00
2023-04-10T16:15:18.458Z,8.52
2023-04-10T16:17:46.205Z,11.30
2023-04-10T16:20:14.274Z,10.52
2023-04-10T16:22:41.663Z,12.07
2023-04-10T16:25:09.608Z,9.75
2023-04-10T16:27:37.024Z,8.95
2023-04-10T16:30:06.549Z,12.13
2023-04-10T16:32:34.296Z,12.63
2023-04-10T16:35:01.684Z,8.98
2023-04-10T16:37:29.128Z,8.32
2023-04-10T16:39:56.853Z,9.30
2023-04-10T16:42:24.258Z,10.27
2023-04-10T16:44:52.145Z,8.18
2023-04-10T16:47:19.818Z,10.75
2023-04-10T16:49:47.291Z,12.75
2023-04-10T16:52:14.728Z,10.05
2023-04-10T16:54:42.366Z,8.98
2023-04-10T16:57:09.714Z,10.07
2023-04-10T16:59:37.092Z,8.48
2023-04-10T17:02:04.751Z,9.02
2023-04-10T17:04:32.133Z,10.23
2023-04-10T17:06:59.516Z,9.45
2023-04-10T17:09:28.339Z,13.48
2023-04-10T17:11:55.961Z,9.65
2023-04-10T17:14:25.207Z,9.50
2023-04-10T17:16:53.989Z,12.30
2023-04-10T17:19:21.519Z,10.30
2023-04-10T17:21:48.883Z,10.52
2023-04-10T17:24:17.365Z,11.12
2023-04-10T17:26:44.826Z,9.10
2023-04-10T17:29:12.201Z,8.80
2023-04-10T17:31:39.871Z,10.02
2023-04-10T17:34:07.270Z,12.77
2023-04-10T17:36:35.877Z,9.70
2023-04-10T17:39:03.712Z,8.77
2023-04-10T17:41:33.418Z,9.18
2023-04-10T17:44:02.524Z,10.73
2023-04-10T17:46:30.173Z,11.77
2023-04-10T17:49:01.164Z,11.77
2023-04-10T17:51:28.923Z,13.95
2023-04-10T17:53:56.698Z,11.52
2023-04-10T17:56:24.074Z,18.27
2023-04-10T17:58:53.199Z,14.52
2023-04-10T18:01:27.551Z,13.43
2023-04-10T18:03:56.185Z,17.70
2023-04-10T18:06:23.796Z,18.87
2023-04-10T18:08:51.329Z,18.50
2023-04-10T18:11:19.592Z,20.62
2023-04-10T18:13:47.490Z,20.33
2023-04-10T18:16:15.011Z,21.45
2023-04-10T18:18:43.167Z,23.95
2023-04-10T18:21:11.575Z,20.98
2023-04-10T18:23:40.542Z,26.92
2023-04-10T18:26:08.410Z,24.65
2023-04-10T18:28:37.767Z,24.58
2023-04-10T18:31:05.349Z,26.30
2023-04-10T18:33:33.351Z,23.55
2023-04-10T18:36:00.727Z,25.45
2023-04-10T18:38:28.280Z,29.33
2023-04-10T18:40:57.188Z,27.60
2023-04-10T18:43:27.668Z,26.75
2023-04-10T18:45:55.829Z,23.75
2023-04-10T18:48:23.566Z,23.02
2023-04-10T18:50:55.561Z,27.15
2023-04-10T18:53:24.137Z,26.05
2023-04-10T18:55:53.958Z,25.98
2023-04-10T18:58:22.517Z,28.35
2023-04-10T19:00:50.342Z,23.08
2023-04-10T19:03:18.346Z,27.20
2023-04-10T19:05:46.114Z,25.85
2023-04-10T19:08:16.148Z,22.52
2023-04-10T19:10:44.100Z,23.65
2023-04-10T19:13:12.880Z,25.80
2023-04-10T19:15:42.299Z,27.37
2023-04-10T19:18:11.788Z,27.60
2023-04-10T19:20:50.738Z,27.77
2023-04-10T19:23:21.106Z,31.08
2023-04-10T19:25:55.558Z,33.38
2023-04-10T19:28:24.112Z,27.98
2023-04-10T19:30:52.468Z,29.55
2023-04-10T19:33:20.548Z,24.65
2023-04-10T19:35:48.032Z,25.55
2023-04-10T19:38:15.754Z,25.67
2023-04-10T19:40:44.928Z,14.90
2023-04-10T19:43:12.788Z,16.30
2023-04-10T19:45:41.039Z,14.60
2023-04-10T19:48:10.083Z,17.27
2023-04-10T19:50:37.716Z,16.45
2023-04-10T19:53:05.433Z,16.02
2023-04-10T19:55:32.962Z,13.20
2023-04-10T19:58:02.204Z,14.75
2023-04-10T20:00:30.235Z,13.80
2023-04-10T20:02:58.586Z,13.52
2023-04-10T20:05:26.366Z,14.60
2023-04-10T20:07:54.092Z,13.95
2023-04-10T20:10:22.063Z,14.65
2023-04-10T20:12:49.429Z,12.82
2023-04-10T20:15:17.567Z,12.52
2023-04-10T20:17:46.797Z,14.02
2023-04-10T20:20:14.383Z,15.55
2023-04-10T20:22:41.777Z,12.32
2023-04-10T20:25:09.749Z,14.55
2023-04-10T20:27:37.198Z,14.30
2023-04-10T20:30:05.148Z,13.65
2023-04-10T20:32:32.803Z,16.95
2023-04-10T20:35:00.205Z,18.98
2023-04-10T20:37:27.624Z,17.73
2023-04-10T20:39:55.280Z,16.12
2023-04-10T20:42:23.243Z,16.90
2023-04-10T20:44:50.682Z,16.02
2023-04-10T20:47:18.351Z,15.00
2023-04-10T20:49:45.756Z,16.55
2023-04-10T20:52:13.371Z,17.67
2023-04-10T20:54:41.050Z,14.45
2023-04-10T20:57:08.456Z,17.92
2023-04-10T20:59:36.638Z,16.30
2023-04-10T21:02:04.358Z,17.60
2023-04-10T21:04:32.828Z,16.25
2023-04-10T21:07:00.421Z,14.05
2023-04-10T21:09:28.090Z,14.75
2023-04-10T21:11:55.533Z,13.62
2023-04-10T21:14:22.921Z,14.57
2023-04-10T21:16:50.707Z,17.08
2023-04-10T21:19:18.201Z,15.65
2023-04-10T21:21:45.592Z,17.40
2023-04-10T21:24:13.342Z,18.30
2023-04-10T21:26:40.874Z,17.50
2023-04-10T21:29:08.277Z,18.85
2023-04-10T21:31:36.072Z,18.12
2023-04-10T21:34:03.685Z,20.85
2023-04-10T21:36:32.690Z,20.90
2023-04-10T21:39:01.353Z,20.02
2023-04-10T21:41:28.788Z,26.20
2023-04-10T21:44:00.268Z,24.60
2023-04-10T21:46:28.203Z,23.40
2023-04-10T21:48:55.826Z,23.65
2023-04-10T21:51:25.743Z,26.05
2023-04-10T21:53:54.934Z,24.27
2023-04-10T21:56:22.363Z,26.08
2023-04-10T21:58:49.766Z,24.85
2023-04-10T22:01:17.469Z,24.40
2023-04-10T22:03:45.184Z,23.40
2023-04-10T22:06:12.618Z,25.92
2023-04-10T22:08:41.297Z,25.27
2023-04-10T22:11:09.011Z,24.40
2023-04-10T22:13:36.504Z,24.45
2023-04-10T22:16:05.353Z,23.58
2023-04-10T22:18:33.596Z,22.80
2023-04-10T22:21:01.011Z,24.67
2023-04-10T22:23:28.433Z,23.02
2023-04-10T22:25:56.044Z,25.65
2023-04-10T22:28:23.444Z,25.52
2023-04-10T22:30:51.028Z,25.52
2023-04-10T22:33:18.752Z,27.15
2023-04-10T22:35:46.300Z,29.12
2023-04-10T22:38:13.686Z,27.60
2023-04-10T22:40:43.004Z,27.27
2023-04-10T22:43:10.995Z,27.95
2023-04-10T22:45:40.287Z,28.45
2023-04-10T22:48:07.988Z,25.00
2023-04-10T22:50:35.482Z,27.13
2023-04-10T22:53:02.901Z,28.62
2023-04-10T22:55:30.636Z,23.98
2023-04-10T22:57:58.014Z,27.52
2023-04-10T23:00:25.465Z,26.87
2023-04-10T23:02:53.178Z,29.02
2023-04-10T23:05:20.627Z,26.10
2023-04-10T23:07:48.027Z,26.12
2023-04-10T23:10:15.760Z,30.75
2023-04-10T23:12:43.209Z,32.22
2023-04-10T23:15:10.932Z,33.53
2023-04-10T23:17:38.842Z,31.67
2023-04-10T23:20:06.868Z,29.70
2023-04-10T23:22:34.298Z,33.30
2023-04-10T23:25:02.057Z,30.35
2023-04-10T23:27:29.541Z,30.92
2023-04-10T23:29:56.906Z,31.95
2023-04-10T23:32:24.575Z,31.30
2023-04-10T23:34:52.032Z,31.10
2023-04-10T23:37:19.423Z,32.63
2023-04-10T23:39:47.027Z,29.92
2023-04-10T23:42:14.389Z,35.47
2023-04-10T23:44:41.727Z,33.47
2023-04-10T23:47:09.383Z,35.30
2023-04-10T23:49:36.779Z,34.17
2023-04-10T23:52:04.287Z,32.90
2023-04-10T23:54:31.924Z,32.75
2023-04-10T23:56:59.444Z,34.85
2023-04-10T23:59:26.808Z,32.22
